sensor_id;sensor_type;location;lat;lon;timestamp;P1;durP1;ratioP1;P2;durP2;ratioP2
11082;SDS011;5595;50.186;8.468;2023-05-07T00:00:56;0.10;;;0.10;;
11082;SDS011;5595;50.186;8.468;2023-05-07T00:03:24;0.28;;;0.28;;
11082;SDS011;5595;50.186;8.468;2023-05-07T00:05:51;0.25;;;0.25;;
11082;SDS011;5595;50.186;8.468;2023-05-07T00:08:18;0.20;;;0.20;;
11082;SDS011;5595;50.186;8.468;2023-05-07T00:10:45;0.20;;;0.20;;
11082;SDS011;5595;50.186;8.468;2023-05-07T00:13:12;0.75;;;0.20;;
11082;SDS011;5595;50.186;8.468;2023-05-07T00:15:39;0.20;;;0.20;;
11082;SDS011;5595;50.186;8.468;2023-05-07T00:18:07;0.50;;;0.20;;
11082;SDS011;5595;50.186;8.468;2023-05-07T00:20:34;0.35;;;0.20;;
11082;SDS011;5595;50.186;8.468;2023-05-07T00:23:01;0.20;;;0.20;;
11082;SDS011;5595;50.186;8.468;2023-05-07T00:25:30;0.22;;;0.22;;
11082;SDS011;5595;50.186;8.468;2023-05-07T00:28:05;0.20;;;0.20;;
11082;SDS011;5595;50.186;8.468;2023-05-07T00:30:32;0.20;;;0.20;;
11082;SDS011;5595;50.186;8.468;2023-05-07T00:32:59;0.52;;;0.20;;
11082;SDS011;5595;50.186;8.468;2023-05-07T00:35:27;0.20;;;0.20;;
11082;SDS011;5595;50.186;8.468;2023-05-07T00:37:55;0.20;;;0.20;;
11082;SDS011;5595;50.186;8.468;2023-05-07T00:40:21;0.38;;;0.20;;
11082;SDS011;5595;50.186;8.468;2023-05-07T00:42:48;0.10;;;0.10;;
11082;SDS011;5595;50.186;8.468;2023-05-07T00:45:15;0.22;;;0.22;;
11082;SDS011;5595;50.186;8.468;2023-05-07T00:47:42;0.52;;;0.40;;
11082;SDS011;5595;50.186;8.468;2023-05-07T00:50:09;0.13;;;0.13;;
11082;SDS011;5595;50.186;8.468;2023-05-07T00:52:38;0.20;;;0.20;;
11082;SDS011;5595;50.186;8.468;2023-05-07T00:55:07;0.43;;;0.30;;
11082;SDS011;5595;50.186;8.468;2023-05-07T00:57:35;0.40;;;0.30;;
11082;SDS011;5595;50.186;8.468;2023-05-07T01:00:04;0.68;;;0.30;;
11082;SDS011;5595;50.186;8.468;2023-05-07T01:02:32;0.40;;;0.40;;
11082;SDS011;5595;50.186;8.468;2023-05-07T01:04:59;0.10;;;0.10;;
11082;SDS011;5595;50.186;8.468;2023-05-07T01:07:27;0.38;;;0.20;;
11082;SDS011;5595;50.186;8.468;2023-05-07T01:09:55;0.22;;;0.22;;
11082;SDS011;5595;50.186;8.468;2023-05-07T01:12:23;0.80;;;0.40;;
11082;SDS011;5595;50.186;8.468;2023-05-07T01:14:52;0.32;;;0.20;;
11082;SDS011;5595;50.186;8.468;2023-05-07T01:17:19;1.35;;;0.30;;
11082;SDS011;5595;50.186;8.468;2023-05-07T01:19:46;0.95;;;0.30;;
11082;SDS011;5595;50.186;8.468;2023-05-07T01:22:14;0.85;;;0.22;;
11082;SDS011;5595;50.186;8.468;2023-05-07T01:24:52;0.22;;;0.20;;
11082;SDS011;5595;50.186;8.468;2023-05-07T01:27:21;0.13;;;0.13;;
11082;SDS011;5595;50.186;8.468;2023-05-07T01:29:47;0.20;;;0.20;;
11082;SDS011;5595;50.186;8.468;2023-05-07T01:32:14;0.20;;;0.20;;
11082;SDS011;5595;50.186;8.468;2023-05-07T01:34:45;0.20;;;0.20;;
11082;SDS011;5595;50.186;8.468;2023-05-07T01:37:14;0.20;;;0.20;;
11082;SDS011;5595;50.186;8.468;2023-05-07T01:39:42;0.10;;;0.10;;
11082;SDS011;5595;50.186;8.468;2023-05-07T01:42:10;0.20;;;0.20;;
11082;SDS011;5595;50.186;8.468;2023-05-07T01:44:38;0.20;;;0.20;;
11082;SDS011;5595;50.186;8.468;2023-05-07T01:47:05;0.30;;;0.20;;
11082;SDS011;5595;50.186;8.468;2023-05-07T01:49:33;0.20;;;0.20;;
11082;SDS011;5595;50.186;8.468;2023-05-07T01:52:00;0.30;;;0.20;;
11082;SDS011;5595;50.186;8.468;2023-05-07T01:54:27;0.50;;;0.20;;
11082;SDS011;5595;50.186;8.468;2023-05-07T01:56:56;0.17;;;0.17;;
11082;SDS011;5595;50.186;8.468;2023-05-07T01:59:23;0.25;;;0.20;;
11082;SDS011;5595;50.186;8.468;2023-05-07T02:01:50;0.20;;;0.20;;
11082;SDS011;5595;50.186;8.468;2023-05-07T02:04:19;2.85;;;0.20;;
11082;SDS011;5595;50.186;8.468;2023-05-07T02:06:46;1.30;;;0.40;;
11082;SDS011;5595;50.186;8.468;2023-05-07T02:09:13;0.22;;;0.22;;
11082;SDS011;5595;50.186;8.468;2023-05-07T02:11:41;0.10;;;0.10;;
11082;SDS011;5595;50.186;8.468;2023-05-07T02:14:09;5.95;;;0.30;;
11082;SDS011;5595;50.186;8.468;2023-05-07T02:16:36;0.25;;;0.25;;
11082;SDS011;5595;50.186;8.468;2023-05-07T02:19:02;0.15;;;0.15;;
11082;SDS011;5595;50.186;8.468;2023-05-07T02:21:30;0.95;;;0.20;;
11082;SDS011;5595;50.186;8.468;2023-05-07T02:23:57;0.25;;;0.20;;
11082;SDS011;5595;50.186;8.468;2023-05-07T02:26:23;0.43;;;0.30;;
11082;SDS011;5595;50.186;8.468;2023-05-07T02:28:52;0.10;;;0.10;;
11082;SDS011;5595;50.186;8.468;2023-05-07T02:31:20;0.20;;;0.20;;
11082;SDS011;5595;50.186;8.468;2023-05-07T02:33:47;0.52;;;0.20;;
11082;SDS011;5595;50.186;8.468;2023-05-07T02:36:13;4.95;;;0.30;;
11082;SDS011;5595;50.186;8.468;2023-05-07T02:38:40;0.20;;;0.20;;
11082;SDS011;5595;50.186;8.468;2023-05-07T02:41:07;0.38;;;0.38;;
11082;SDS011;5595;50.186;8.468;2023-05-07T02:43:34;0.20;;;0.20;;
11082;SDS011;5595;50.186;8.468;2023-05-07T02:46:01;1.02;;;0.20;;
11082;SDS011;5595;50.186;8.468;2023-05-07T02:48:30;0.28;;;0.10;;
11082;SDS011;5595;50.186;8.468;2023-05-07T02:50:57;2.63;;;0.22;;
11082;SDS011;5595;50.186;8.468;2023-05-07T02:53:24;0.10;;;0.10;;
11082;SDS011;5595;50.186;8.468;2023-05-07T02:55:51;0.35;;;0.20;;
11082;SDS011;5595;50.186;8.468;2023-05-07T02:58:18;0.52;;;0.35;;
11082;SDS011;5595;50.186;8.468;2023-05-07T03:00:45;0.20;;;0.20;;
11082;SDS011;5595;50.186;8.468;2023-05-07T03:03:12;0.30;;;0.20;;
11082;SDS011;5595;50.186;8.468;2023-05-07T03:05:41;0.22;;;0.20;;
11082;SDS011;5595;50.186;8.468;2023-05-07T03:08:08;1.38;;;0.20;;
11082;SDS011;5595;50.186;8.468;2023-05-07T03:10:35;0.28;;;0.28;;
11082;SDS011;5595;50.186;8.468;2023-05-07T03:13:02;0.20;;;0.20;;
11082;SDS011;5595;50.186;8.468;2023-05-07T03:15:29;0.30;;;0.30;;
11082;SDS011;5595;50.186;8.468;2023-05-07T03:17:56;0.35;;;0.20;;
11082;SDS011;5595;50.186;8.468;2023-05-07T03:20:23;0.30;;;0.30;;
11082;SDS011;5595;50.186;8.468;2023-05-07T03:22:51;0.65;;;0.47;;
11082;SDS011;5595;50.186;8.468;2023-05-07T03:25:18;0.35;;;0.30;;
11082;SDS011;5595;50.186;8.468;2023-05-07T03:27:44;0.20;;;0.20;;
11082;SDS011;5595;50.186;8.468;2023-05-07T03:30:12;0.15;;;0.15;;
11082;SDS011;5595;50.186;8.468;2023-05-07T03:32:39;0.52;;;0.30;;
11082;SDS011;5595;50.186;8.468;2023-05-07T03:35:06;0.20;;;0.20;;
11082;SDS011;5595;50.186;8.468;2023-05-07T03:37:33;1.05;;;0.38;;
11082;SDS011;5595;50.186;8.468;2023-05-07T03:40:01;0.30;;;0.20;;
11082;SDS011;5595;50.186;8.468;2023-05-07T03:42:28;0.28;;;0.28;;
11082;SDS011;5595;50.186;8.468;2023-05-07T03:44:55;0.20;;;0.20;;
11082;SDS011;5595;50.186;8.468;2023-05-07T03:47:24;0.30;;;0.30;;
11082;SDS011;5595;50.186;8.468;2023-05-07T03:49:51;1.65;;;0.35;;
11082;SDS011;5595;50.186;8.468;2023-05-07T03:52:19;0.32;;;0.30;;
11082;SDS011;5595;50.186;8.468;2023-05-07T03:54:50;0.30;;;0.30;;
11082;SDS011;5595;50.186;8.468;2023-05-07T03:57:18;2.50;;;0.50;;
11082;SDS011;5595;50.186;8.468;2023-05-07T03:59:45;0.28;;;0.28;;
11082;SDS011;5595;50.186;8.468;2023-05-07T04:02:12;1.55;;;0.60;;
11082;SDS011;5595;50.186;8.468;2023-05-07T04:04:39;0.20;;;0.20;;
11082;SDS011;5595;50.186;8.468;2023-05-07T04:07:06;0.40;;;0.32;;
11082;SDS011;5595;50.186;8.468;2023-05-07T04:09:33;0.35;;;0.30;;
11082;SDS011;5595;50.186;8.468;2023-05-07T04:11:59;0.20;;;0.17;;
11082;SDS011;5595;50.186;8.468;2023-05-07T04:14:28;0.30;;;0.20;;
11082;SDS011;5595;50.186;8.468;2023-05-07T04:16:57;0.57;;;0.30;;
11082;SDS011;5595;50.186;8.468;2023-05-07T04:19:24;0.35;;;0.28;;
11082;SDS011;5595;50.186;8.468;2023-05-07T04:21:50;1.73;;;0.50;;
11082;SDS011;5595;50.186;8.468;2023-05-07T04:24:17;0.32;;;0.32;;
11082;SDS011;5595;50.186;8.468;2023-05-07T04:26:44;0.30;;;0.30;;
11082;SDS011;5595;50.186;8.468;2023-05-07T04:29:11;0.75;;;0.20;;
11082;SDS011;5595;50.186;8.468;2023-05-07T04:31:39;0.30;;;0.28;;
11082;SDS011;5595;50.186;8.468;2023-05-07T04:34:06;0.40;;;0.40;;
11082;SDS011;5595;50.186;8.468;2023-05-07T04:36:34;0.30;;;0.30;;
11082;SDS011;5595;50.186;8.468;2023-05-07T04:39:02;0.30;;;0.30;;
11082;SDS011;5595;50.186;8.468;2023-05-07T04:41:29;0.30;;;0.30;;
11082;SDS011;5595;50.186;8.468;2023-05-07T04:43:56;0.20;;;0.20;;
11082;SDS011;5595;50.186;8.468;2023-05-07T04:46:23;0.32;;;0.32;;
11082;SDS011;5595;50.186;8.468;2023-05-07T04:48:52;0.47;;;0.30;;
11082;SDS011;5595;50.186;8.468;2023-05-07T04:51:19;0.20;;;0.20;;
11082;SDS011;5595;50.186;8.468;2023-05-07T04:53:45;0.47;;;0.40;;
11082;SDS011;5595;50.186;8.468;2023-05-07T04:56:12;0.30;;;0.30;;
11082;SDS011;5595;50.186;8.468;2023-05-07T04:58:39;0.68;;;0.20;;
11082;SDS011;5595;50.186;8.468;2023-05-07T05:01:06;0.25;;;0.25;;
11082;SDS011;5595;50.186;8.468;2023-05-07T05:03:33;0.85;;;0.40;;
11082;SDS011;5595;50.186;8.468;2023-05-07T05:06:01;0.52;;;0.30;;
11082;SDS011;5595;50.186;8.468;2023-05-07T05:08:29;0.30;;;0.30;;
11082;SDS011;5595;50.186;8.468;2023-05-07T05:10:56;0.65;;;0.38;;
11082;SDS011;5595;50.186;8.468;2023-05-07T05:13:23;1.13;;;0.38;;
11082;SDS011;5595;50.186;8.468;2023-05-07T05:15:50;0.45;;;0.35;;
11082;SDS011;5595;50.186;8.468;2023-05-07T05:18:16;0.55;;;0.20;;
11082;SDS011;5595;50.186;8.468;2023-05-07T05:20:43;1.05;;;0.35;;
11082;SDS011;5595;50.186;8.468;2023-05-07T05:23:11;0.30;;;0.30;;
11082;SDS011;5595;50.186;8.468;2023-05-07T05:25:38;0.30;;;0.30;;
11082;SDS011;5595;50.186;8.468;2023-05-07T05:28:05;0.52;;;0.30;;
11082;SDS011;5595;50.186;8.468;2023-05-07T05:30:32;0.85;;;0.28;;
11082;SDS011;5595;50.186;8.468;2023-05-07T05:32:59;0.20;;;0.20;;
11082;SDS011;5595;50.186;8.468;2023-05-07T05:35:26;0.47;;;0.25;;
11082;SDS011;5595;50.186;8.468;2023-05-07T05:37:53;0.30;;;0.30;;
11082;SDS011;5595;50.186;8.468;2023-05-07T05:40:21;0.52;;;0.30;;
11082;SDS011;5595;50.186;8.468;2023-05-07T05:42:48;3.42;;;0.30;;
11082;SDS011;5595;50.186;8.468;2023-05-07T05:45:15;0.40;;;0.32;;
11082;SDS011;5595;50.186;8.468;2023-05-07T05:47:42;0.30;;;0.30;;
11082;SDS011;5595;50.186;8.468;2023-05-07T05:50:09;1.00;;;0.40;;
11082;SDS011;5595;50.186;8.468;2023-05-07T05:52:36;1.00;;;0.40;;
11082;SDS011;5595;50.186;8.468;2023-05-07T05:55:03;0.45;;;0.45;;
11082;SDS011;5595;50.186;8.468;2023-05-07T05:57:32;1.08;;;0.40;;
11082;SDS011;5595;50.186;8.468;2023-05-07T05:59:59;1.13;;;0.40;;
11082;SDS011;5595;50.186;8.468;2023-05-07T06:02:27;2.30;;;0.40;;
11082;SDS011;5595;50.186;8.468;2023-05-07T06:04:54;3.13;;;0.40;;
11082;SDS011;5595;50.186;8.468;2023-05-07T06:07:21;0.40;;;0.40;;
11082;SDS011;5595;50.186;8.468;2023-05-07T06:09:48;0.25;;;0.25;;
11082;SDS011;5595;50.186;8.468;2023-05-07T06:12:17;0.40;;;0.40;;
11082;SDS011;5595;50.186;8.468;2023-05-07T06:14:46;0.30;;;0.30;;
11082;SDS011;5595;50.186;8.468;2023-05-07T06:17:13;0.40;;;0.40;;
11082;SDS011;5595;50.186;8.468;2023-05-07T06:19:40;0.70;;;0.35;;
11082;SDS011;5595;50.186;8.468;2023-05-07T06:22:07;0.50;;;0.50;;
11082;SDS011;5595;50.186;8.468;2023-05-07T06:24:34;0.32;;;0.32;;
11082;SDS011;5595;50.186;8.468;2023-05-07T06:27:01;0.35;;;0.35;;
11082;SDS011;5595;50.186;8.468;2023-05-07T06:29:28;0.40;;;0.40;;
11082;SDS011;5595;50.186;8.468;2023-05-07T06:32:03;0.40;;;0.40;;
11082;SDS011;5595;50.186;8.468;2023-05-07T06:34:32;0.55;;;0.52;;
11082;SDS011;5595;50.186;8.468;2023-05-07T06:36:59;0.30;;;0.30;;
11082;SDS011;5595;50.186;8.468;2023-05-07T06:39:26;0.30;;;0.30;;
11082;SDS011;5595;50.186;8.468;2023-05-07T06:41:53;0.45;;;0.35;;
11082;SDS011;5595;50.186;8.468;2023-05-07T06:44:20;0.30;;;0.30;;
11082;SDS011;5595;50.186;8.468;2023-05-07T06:46:47;1.65;;;0.47;;
11082;SDS011;5595;50.186;8.468;2023-05-07T06:49:15;1.52;;;0.30;;
11082;SDS011;5595;50.186;8.468;2023-05-07T06:51:42;0.20;;;0.20;;
11082;SDS011;5595;50.186;8.468;2023-05-07T06:54:09;0.30;;;0.30;;
11082;SDS011;5595;50.186;8.468;2023-05-07T06:56:35;0.40;;;0.40;;
11082;SDS011;5595;50.186;8.468;2023-05-07T06:59:03;2.65;;;0.60;;
11082;SDS011;5595;50.186;8.468;2023-05-07T07:01:30;0.35;;;0.35;;
11082;SDS011;5595;50.186;8.468;2023-05-07T07:03:56;0.40;;;0.40;;
11082;SDS011;5595;50.186;8.468;2023-05-07T07:06:25;1.63;;;0.60;;
11082;SDS011;5595;50.186;8.468;2023-05-07T07:08:52;0.38;;;0.38;;
11082;SDS011;5595;50.186;8.468;2023-05-07T07:11:18;1.10;;;0.45;;
11082;SDS011;5595;50.186;8.468;2023-05-07T07:13:45;0.30;;;0.30;;
11082;SDS011;5595;50.186;8.468;2023-05-07T07:16:12;0.45;;;0.45;;
11082;SDS011;5595;50.186;8.468;2023-05-07T07:18:39;0.50;;;0.50;;
11082;SDS011;5595;50.186;8.468;2023-05-07T07:21:06;0.40;;;0.40;;
11082;SDS011;5595;50.186;8.468;2023-05-07T07:23:34;0.63;;;0.30;;
11082;SDS011;5595;50.186;8.468;2023-05-07T07:26:01;0.45;;;0.45;;
11082;SDS011;5595;50.186;8.468;2023-05-07T07:28:28;0.20;;;0.20;;
11082;SDS011;5595;50.186;8.468;2023-05-07T07:30:55;0.43;;;0.43;;
11082;SDS011;5595;50.186;8.468;2023-05-07T07:33:22;0.45;;;0.43;;
11082;SDS011;5595;50.186;8.468;2023-05-07T07:35:49;0.43;;;0.43;;
11082;SDS011;5595;50.186;8.468;2023-05-07T07:38:16;0.47;;;0.47;;
11082;SDS011;5595;50.186;8.468;2023-05-07T07:40:44;0.85;;;0.40;;
11082;SDS011;5595;50.186;8.468;2023-05-07T07:43:11;0.40;;;0.40;;
11082;SDS011;5595;50.186;8.468;2023-05-07T07:45:38;0.30;;;0.30;;
11082;SDS011;5595;50.186;8.468;2023-05-07T07:48:05;0.70;;;0.40;;
11082;SDS011;5595;50.186;8.468;2023-05-07T07:50:32;0.30;;;0.30;;
11082;SDS011;5595;50.186;8.468;2023-05-07T07:52:59;0.40;;;0.40;;
11082;SDS011;5595;50.186;8.468;2023-05-07T07:55:26;1.02;;;0.50;;
11082;SDS011;5595;50.186;8.468;2023-05-07T07:57:54;0.47;;;0.47;;
11082;SDS011;5595;50.186;8.468;2023-05-07T08:00:21;0.75;;;0.50;;
11082;SDS011;5595;50.186;8.468;2023-05-07T08:02:48;0.85;;;0.40;;
11082;SDS011;5595;50.186;8.468;2023-05-07T08:05:15;0.50;;;0.50;;
11082;SDS011;5595;50.186;8.468;2023-05-07T08:07:42;0.77;;;0.60;;
11082;SDS011;5595;50.186;8.468;2023-05-07T08:10:09;0.70;;;0.50;;
11082;SDS011;5595;50.186;8.468;2023-05-07T08:12:36;0.50;;;0.50;;
11082;SDS011;5595;50.186;8.468;2023-05-07T08:15:05;0.70;;;0.50;;
11082;SDS011;5595;50.186;8.468;2023-05-07T08:17:33;1.58;;;0.60;;
11082;SDS011;5595;50.186;8.468;2023-05-07T08:19:59;0.47;;;0.43;;
11082;SDS011;5595;50.186;8.468;2023-05-07T08:22:26;0.70;;;0.55;;
11082;SDS011;5595;50.186;8.468;2023-05-07T08:24:53;2.38;;;0.50;;
11082;SDS011;5595;50.186;8.468;2023-05-07T08:27:20;0.55;;;0.50;;
11082;SDS011;5595;50.186;8.468;2023-05-07T08:29:47;0.55;;;0.45;;
11082;SDS011;5595;50.186;8.468;2023-05-07T08:32:15;1.27;;;0.60;;
11082;SDS011;5595;50.186;8.468;2023-05-07T08:34:42;0.30;;;0.30;;
11082;SDS011;5595;50.186;8.468;2023-05-07T08:37:09;0.65;;;0.60;;
11082;SDS011;5595;50.186;8.468;2023-05-07T08:39:35;0.40;;;0.38;;
11082;SDS011;5595;50.186;8.468;2023-05-07T08:42:02;0.63;;;0.63;;
11082;SDS011;5595;50.186;8.468;2023-05-07T08:44:32;1.38;;;0.60;;
11082;SDS011;5595;50.186;8.468;2023-05-07T08:47:00;0.75;;;0.68;;
11082;SDS011;5595;50.186;8.468;2023-05-07T08:49:29;0.70;;;0.70;;
11082;SDS011;5595;50.186;8.468;2023-05-07T08:51:56;2.72;;;0.60;;
11082;SDS011;5595;50.186;8.468;2023-05-07T08:54:24;0.47;;;0.47;;
11082;SDS011;5595;50.186;8.468;2023-05-07T08:56:52;0.90;;;0.65;;
11082;SDS011;5595;50.186;8.468;2023-05-07T08:59:19;0.40;;;0.40;;
11082;SDS011;5595;50.186;8.468;2023-05-07T09:01:45;0.88;;;0.52;;
11082;SDS011;5595;50.186;8.468;2023-05-07T09:04:12;0.60;;;0.60;;
11082;SDS011;5595;50.186;8.468;2023-05-07T09:06:41;0.95;;;0.60;;
11082;SDS011;5595;50.186;8.468;2023-05-07T09:09:07;0.90;;;0.90;;
11082;SDS011;5595;50.186;8.468;2023-05-07T09:11:34;2.55;;;0.95;;
11082;SDS011;5595;50.186;8.468;2023-05-07T09:14:01;0.75;;;0.60;;
11082;SDS011;5595;50.186;8.468;2023-05-07T09:16:29;0.50;;;0.50;;
11082;SDS011;5595;50.186;8.468;2023-05-07T09:18:57;0.50;;;0.50;;
11082;SDS011;5595;50.186;8.468;2023-05-07T09:21:25;0.90;;;0.75;;
11082;SDS011;5595;50.186;8.468;2023-05-07T09:23:54;0.70;;;0.70;;
11082;SDS011;5595;50.186;8.468;2023-05-07T09:26:21;1.38;;;0.75;;
11082;SDS011;5595;50.186;8.468;2023-05-07T09:28:48;0.60;;;0.60;;
11082;SDS011;5595;50.186;8.468;2023-05-07T09:31:15;0.55;;;0.55;;
11082;SDS011;5595;50.186;8.468;2023-05-07T09:33:43;1.02;;;0.68;;
11082;SDS011;5595;50.186;8.468;2023-05-07T09:36:10;2.45;;;1.10;;
11082;SDS011;5595;50.186;8.468;2023-05-07T09:38:37;1.92;;;0.80;;
11082;SDS011;5595;50.186;8.468;2023-05-07T09:41:06;0.80;;;0.80;;
11082;SDS011;5595;50.186;8.468;2023-05-07T09:43:34;0.75;;;0.75;;
11082;SDS011;5595;50.186;8.468;2023-05-07T09:46:02;3.03;;;0.90;;
11082;SDS011;5595;50.186;8.468;2023-05-07T09:48:32;0.50;;;0.50;;
11082;SDS011;5595;50.186;8.468;2023-05-07T09:51:02;0.80;;;0.80;;
11082;SDS011;5595;50.186;8.468;2023-05-07T09:53:37;0.85;;;0.85;;
11082;SDS011;5595;50.186;8.468;2023-05-07T09:56:06;0.93;;;0.85;;
11082;SDS011;5595;50.186;8.468;2023-05-07T09:58:34;0.70;;;0.70;;
11082;SDS011;5595;50.186;8.468;2023-05-07T10:01:04;1.10;;;0.77;;
11082;SDS011;5595;50.186;8.468;2023-05-07T10:03:33;0.77;;;0.77;;
11082;SDS011;5595;50.186;8.468;2023-05-07T10:06:01;1.35;;;0.70;;
11082;SDS011;5595;50.186;8.468;2023-05-07T10:08:30;0.93;;;0.82;;
11082;SDS011;5595;50.186;8.468;2023-05-07T10:10:57;0.93;;;0.80;;
11082;SDS011;5595;50.186;8.468;2023-05-07T10:13:25;0.88;;;0.88;;
11082;SDS011;5595;50.186;8.468;2023-05-07T10:15:52;0.75;;;0.75;;
11082;SDS011;5595;50.186;8.468;2023-05-07T10:18:21;0.85;;;0.85;;
11082;SDS011;5595;50.186;8.468;2023-05-07T10:20:54;0.60;;;0.60;;
11082;SDS011;5595;50.186;8.468;2023-05-07T10:23:24;0.70;;;0.70;;
11082;SDS011;5595;50.186;8.468;2023-05-07T10:25:53;0.88;;;0.82;;
11082;SDS011;5595;50.186;8.468;2023-05-07T10:28:21;2.13;;;1.00;;
11082;SDS011;5595;50.186;8.468;2023-05-07T10:30:55;1.35;;;1.00;;
11082;SDS011;5595;50.186;8.468;2023-05-07T10:33:30;0.80;;;0.80;;
11082;SDS011;5595;50.186;8.468;2023-05-07T10:35:58;1.15;;;0.65;;
11082;SDS011;5595;50.186;8.468;2023-05-07T10:38:26;0.80;;;0.75;;
11082;SDS011;5595;50.186;8.468;2023-05-07T10:40:54;1.02;;;0.80;;
11082;SDS011;5595;50.186;8.468;2023-05-07T10:43:21;1.17;;;0.80;;
11082;SDS011;5595;50.186;8.468;2023-05-07T10:51:32;1.42;;;0.80;;
11082;SDS011;5595;50.186;8.468;2023-05-07T10:54:19;0.98;;;0.80;;
11082;SDS011;5595;50.186;8.468;2023-05-07T10:56:52;0.68;;;0.68;;
11082;SDS011;5595;50.186;8.468;2023-05-07T10:59:35;0.80;;;0.63;;
11082;SDS011;5595;50.186;8.468;2023-05-07T11:02:10;0.90;;;0.90;;
11082;SDS011;5595;50.186;8.468;2023-05-07T11:04:39;0.80;;;0.80;;
11082;SDS011;5595;50.186;8.468;2023-05-07T11:07:21;1.02;;;0.85;;
11082;SDS011;5595;50.186;8.468;2023-05-07T11:10:03;1.25;;;0.80;;
11082;SDS011;5595;50.186;8.468;2023-05-07T11:12:50;0.68;;;0.68;;
11082;SDS011;5595;50.186;8.468;2023-05-07T11:15:36;0.57;;;0.57;;
11082;SDS011;5595;50.186;8.468;2023-05-07T11:18:09;0.70;;;0.70;;
11082;SDS011;5595;50.186;8.468;2023-05-07T11:20:50;0.70;;;0.70;;
11082;SDS011;5595;50.186;8.468;2023-05-07T11:26:25;0.85;;;0.70;;
11082;SDS011;5595;50.186;8.468;2023-05-07T11:28:53;0.60;;;0.60;;
11082;SDS011;5595;50.186;8.468;2023-05-07T11:31:21;1.00;;;0.73;;
11082;SDS011;5595;50.186;8.468;2023-05-07T11:33:54;0.70;;;0.70;;
11082;SDS011;5595;50.186;8.468;2023-05-07T11:36:22;0.68;;;0.68;;
11082;SDS011;5595;50.186;8.468;2023-05-07T11:38:50;1.02;;;0.80;;
11082;SDS011;5595;50.186;8.468;2023-05-07T11:41:17;1.17;;;0.82;;
11082;SDS011;5595;50.186;8.468;2023-05-07T11:43:56;0.50;;;0.50;;
11082;SDS011;5595;50.186;8.468;2023-05-07T11:46:24;0.60;;;0.60;;
11082;SDS011;5595;50.186;8.468;2023-05-07T11:48:52;3.17;;;0.80;;
11082;SDS011;5595;50.186;8.468;2023-05-07T11:51:21;0.88;;;0.77;;
11082;SDS011;5595;50.186;8.468;2023-05-07T11:53:49;0.77;;;0.70;;
11082;SDS011;5595;50.186;8.468;2023-05-07T11:56:17;0.68;;;0.60;;
11082;SDS011;5595;50.186;8.468;2023-05-07T11:58:45;0.60;;;0.60;;
11082;SDS011;5595;50.186;8.468;2023-05-07T12:01:13;1.05;;;0.60;;
11082;SDS011;5595;50.186;8.468;2023-05-07T12:03:42;0.50;;;0.50;;
11082;SDS011;5595;50.186;8.468;2023-05-07T12:06:10;0.65;;;0.47;;
11082;SDS011;5595;50.186;8.468;2023-05-07T12:08:40;0.73;;;0.52;;
11082;SDS011;5595;50.186;8.468;2023-05-07T12:11:08;0.50;;;0.50;;
11082;SDS011;5595;50.186;8.468;2023-05-07T12:13:36;0.70;;;0.70;;
11082;SDS011;5595;50.186;8.468;2023-05-07T12:16:05;0.38;;;0.38;;
11082;SDS011;5595;50.186;8.468;2023-05-07T12:18:33;0.80;;;0.65;;
11082;SDS011;5595;50.186;8.468;2023-05-07T12:21:02;0.68;;;0.50;;
11082;SDS011;5595;50.186;8.468;2023-05-07T12:23:31;0.57;;;0.57;;
11082;SDS011;5595;50.186;8.468;2023-05-07T12:26:00;0.63;;;0.63;;
11082;SDS011;5595;50.186;8.468;2023-05-07T12:28:27;0.70;;;0.60;;
11082;SDS011;5595;50.186;8.468;2023-05-07T12:30:55;0.93;;;0.60;;
11082;SDS011;5595;50.186;8.468;2023-05-07T12:33:24;0.60;;;0.60;;
11082;SDS011;5595;50.186;8.468;2023-05-07T12:35:53;0.50;;;0.50;;
11082;SDS011;5595;50.186;8.468;2023-05-07T12:38:21;1.42;;;0.50;;
11082;SDS011;5595;50.186;8.468;2023-05-07T12:40:49;0.82;;;0.43;;
11082;SDS011;5595;50.186;8.468;2023-05-07T12:43:18;0.73;;;0.40;;
11082;SDS011;5595;50.186;8.468;2023-05-07T12:45:46;0.55;;;0.52;;
11082;SDS011;5595;50.186;8.468;2023-05-07T12:48:15;0.50;;;0.50;;
11082;SDS011;5595;50.186;8.468;2023-05-07T12:50:42;0.68;;;0.40;;
11082;SDS011;5595;50.186;8.468;2023-05-07T12:53:11;0.73;;;0.40;;
11082;SDS011;5595;50.186;8.468;2023-05-07T12:55:41;0.45;;;0.40;;
11082;SDS011;5595;50.186;8.468;2023-05-07T12:58:14;0.47;;;0.47;;
11082;SDS011;5595;50.186;8.468;2023-05-07T13:00:44;1.15;;;0.70;;
11082;SDS011;5595;50.186;8.468;2023-05-07T13:03:15;0.60;;;0.60;;
11082;SDS011;5595;50.186;8.468;2023-05-07T13:05:47;0.93;;;0.65;;
11082;SDS011;5595;50.186;8.468;2023-05-07T13:08:22;0.60;;;0.60;;
11082;SDS011;5595;50.186;8.468;2023-05-07T13:10:53;0.73;;;0.73;;
11082;SDS011;5595;50.186;8.468;2023-05-07T13:13:20;2.45;;;1.20;;
11082;SDS011;5595;50.186;8.468;2023-05-07T13:15:49;3.22;;;0.60;;
11082;SDS011;5595;50.186;8.468;2023-05-07T13:18:16;0.75;;;0.65;;
11082;SDS011;5595;50.186;8.468;2023-05-07T13:20:43;0.65;;;0.50;;
11082;SDS011;5595;50.186;8.468;2023-05-07T13:23:10;1.55;;;0.73;;
11082;SDS011;5595;50.186;8.468;2023-05-07T13:25:49;1.42;;;0.57;;
11082;SDS011;5595;50.186;8.468;2023-05-07T13:31:18;1.38;;;0.77;;
11082;SDS011;5595;50.186;8.468;2023-05-07T13:33:45;0.70;;;0.70;;
11082;SDS011;5595;50.186;8.468;2023-05-07T13:36:12;1.02;;;0.93;;
11082;SDS011;5595;50.186;8.468;2023-05-07T13:38:39;1.08;;;0.65;;
11082;SDS011;5595;50.186;8.468;2023-05-07T13:41:06;0.75;;;0.75;;
11082;SDS011;5595;50.186;8.468;2023-05-07T13:43:33;0.65;;;0.65;;
11082;SDS011;5595;50.186;8.468;2023-05-07T13:46:00;0.80;;;0.80;;
11082;SDS011;5595;50.186;8.468;2023-05-07T13:48:28;2.42;;;0.80;;
11082;SDS011;5595;50.186;8.468;2023-05-07T13:50:55;0.75;;;0.60;;
11082;SDS011;5595;50.186;8.468;2023-05-07T13:53:22;0.90;;;0.80;;
11082;SDS011;5595;50.186;8.468;2023-05-07T13:55:49;0.70;;;0.70;;
11082;SDS011;5595;50.186;8.468;2023-05-07T13:58:16;3.30;;;0.75;;
11082;SDS011;5595;50.186;8.468;2023-05-07T14:00:42;0.70;;;0.70;;
11082;SDS011;5595;50.186;8.468;2023-05-07T14:03:09;0.75;;;0.70;;
11082;SDS011;5595;50.186;8.468;2023-05-07T14:05:38;0.82;;;0.73;;
11082;SDS011;5595;50.186;8.468;2023-05-07T14:08:05;0.50;;;0.50;;
11082;SDS011;5595;50.186;8.468;2023-05-07T14:10:32;1.02;;;0.80;;
11082;SDS011;5595;50.186;8.468;2023-05-07T14:13:02;0.82;;;0.75;;
11082;SDS011;5595;50.186;8.468;2023-05-07T14:15:29;0.63;;;0.63;;
11082;SDS011;5595;50.186;8.468;2023-05-07T14:17:57;1.02;;;0.93;;
11082;SDS011;5595;50.186;8.468;2023-05-07T14:20:24;0.73;;;0.73;;
11082;SDS011;5595;50.186;8.468;2023-05-07T14:22:52;0.75;;;0.70;;
11082;SDS011;5595;50.186;8.468;2023-05-07T14:25:19;0.50;;;0.50;;
11082;SDS011;5595;50.186;8.468;2023-05-07T14:27:46;1.33;;;0.80;;
11082;SDS011;5595;50.186;8.468;2023-05-07T14:30:13;0.80;;;0.68;;
11082;SDS011;5595;50.186;8.468;2023-05-07T14:32:41;0.80;;;0.80;;
11082;SDS011;5595;50.186;8.468;2023-05-07T14:35:08;0.52;;;0.50;;
11082;SDS011;5595;50.186;8.468;2023-05-07T14:37:35;0.60;;;0.60;;
11082;SDS011;5595;50.186;8.468;2023-05-07T14:40:04;0.75;;;0.70;;
11082;SDS011;5595;50.186;8.468;2023-05-07T14:42:32;0.50;;;0.50;;
11082;SDS011;5595;50.186;8.468;2023-05-07T14:44:59;0.60;;;0.60;;
11082;SDS011;5595;50.186;8.468;2023-05-07T14:47:26;1.40;;;0.52;;
11082;SDS011;5595;50.186;8.468;2023-05-07T14:49:53;3.80;;;0.60;;
11082;SDS011;5595;50.186;8.468;2023-05-07T14:52:22;0.50;;;0.50;;
11082;SDS011;5595;50.186;8.468;2023-05-07T14:54:49;1.02;;;0.90;;
11082;SDS011;5595;50.186;8.468;2023-05-07T14:57:17;0.80;;;0.50;;
11082;SDS011;5595;50.186;8.468;2023-05-07T14:59:44;0.70;;;0.60;;
11082;SDS011;5595;50.186;8.468;2023-05-07T15:02:12;0.50;;;0.50;;
11082;SDS011;5595;50.186;8.468;2023-05-07T15:04:40;0.65;;;0.65;;
11082;SDS011;5595;50.186;8.468;2023-05-07T15:07:10;0.45;;;0.45;;
11082;SDS011;5595;50.186;8.468;2023-05-07T15:09:39;1.15;;;0.50;;
11082;SDS011;5595;50.186;8.468;2023-05-07T15:12:06;0.52;;;0.52;;
11082;SDS011;5595;50.186;8.468;2023-05-07T15:14:35;0.77;;;0.55;;
11082;SDS011;5595;50.186;8.468;2023-05-07T15:17:02;0.60;;;0.60;;